Time;durP1;ratioP1;P1;durP2;ratioP2;P2;SDS_P1;SDS_P2;PMS_P1;PMS_P2;Temp;Humidity;BMP_temperature;BMP_pressure;BME280_temperature;BME280_humidity;BME280_pressure;Samples;Min_cycle;Max_cycle;Signal;HPM_P1;HPM_P2
2022/12/30 00:00:39;;;;;;;31.13;3.35;;;;;;;;;;5008742;28;20065;-71
2022/12/30 00:03:07;;;;;;;29.42;4.47;;;;;;;;;;5008797;28;20057;-72
2022/12/30 00:05:34;;;;;;;24.80;3.30;;;;;;;;;;5027374;28;20061;-71
2022/12/30 00:08:01;;;;;;;39.00;6.20;;;;;;;;;;5025651;28;20052;-71
2022/12/30 00:10:28;;;;;;;24.63;3.28;;;;;;;;;;5009754;28;20052;-71
2022/12/30 00:35:09;;;;;;;22.63;3.22;;;;;;;;;;5009556;28;20523;-71
2022/12/30 00:37:36;;;;;;;28.35;2.88;;;;;;;;;;5024885;28;20053;-70
2022/12/30 00:40:04;;;;;;;27.25;3.53;;;;;;;;;;5025114;28;20071;-71
2022/12/30 00:45:17;;;;;;;31.95;3.75;;;;;;;;;;5025044;28;20207;-71
2022/12/30 00:47:45;;;;;;;26.58;3.28;;;;;;;;;;5007808;28;20424;-71
2022/12/30 00:58:27;;;;;;;29.02;3.45;;;;;;;;;;5024084;28;20425;-71
2022/12/30 01:00:56;;;;;;;25.65;3.78;;;;;;;;;;5025681;28;20054;-71
2022/12/30 01:03:23;;;;;;;26.38;2.40;;;;;;;;;;5028238;28;20050;-71
2022/12/30 01:05:51;;;;;;;36.33;3.13;;;;;;;;;;5024628;28;20041;-71
2022/12/30 01:08:18;;;;;;;34.17;4.07;;;;;;;;;;5007682;28;20053;-71
2022/12/30 01:10:45;;;;;;;31.92;4.90;;;;;;;;;;5004754;28;20057;-72
2022/12/30 01:13:12;;;;;;;30.05;2.60;;;;;;;;;;5025925;28;20049;-71
2022/12/30 01:15:40;;;;;;;30.77;2.88;;;;;;;;;;5005363;28;20460;-71
2022/12/30 01:18:08;;;;;;;38.45;4.47;;;;;;;;;;5009003;28;20060;-71
2022/12/30 01:20:37;;;;;;;29.23;3.42;;;;;;;;;;5006609;28;20060;-71
2022/12/30 01:23:04;;;;;;;33.70;3.28;;;;;;;;;;5006941;28;20065;-71
2022/12/30 01:25:31;;;;;;;26.83;3.63;;;;;;;;;;5024681;28;20053;-71
2022/12/30 01:27:58;;;;;;;45.97;4.25;;;;;;;;;;5005782;28;20049;-70
2022/12/30 01:30:26;;;;;;;24.45;3.17;;;;;;;;;;5023867;28;20057;-72
2022/12/30 01:32:53;;;;;;;25.27;3.72;;;;;;;;;;5025049;28;20049;-72
2022/12/30 01:35:21;;;;;;;31.00;4.03;;;;;;;;;;5044465;28;20411;-71
2022/12/30 01:37:49;;;;;;;27.95;3.20;;;;;;;;;;5024939;28;20788;-71
2022/12/30 01:40:16;;;;;;;30.05;3.90;;;;;;;;;;5024448;28;20057;-71
2022/12/30 01:42:44;;;;;;;24.98;3.40;;;;;;;;;;5024434;28;20749;-71
2022/12/30 01:45:21;;;;;;;28.05;4.22;;;;;;;;;;5006383;28;20053;-71
2022/12/30 01:47:50;;;;;;;31.30;3.17;;;;;;;;;;5023864;28;20061;-71
2022/12/30 01:50:21;;;;;;;36.78;3.53;;;;;;;;;;5021349;28;20075;-71
2022/12/30 01:52:52;;;;;;;26.10;3.45;;;;;;;;;;5021768;28;20057;-71
2022/12/30 01:55:22;;;;;;;24.95;3.45;;;;;;;;;;5006457;28;20053;-71
2022/12/30 01:57:50;;;;;;;24.65;3.63;;;;;;;;;;5023131;28;20057;-71
2022/12/30 02:00:18;;;;;;;35.25;3.33;;;;;;;;;;5024168;28;20049;-71
2022/12/30 02:02:45;;;;;;;28.73;3.45;;;;;;;;;;5010115;28;20592;-71
2022/12/30 02:05:13;;;;;;;22.77;2.88;;;;;;;;;;5023786;28;20053;-71
2022/12/30 02:07:43;;;;;;;27.63;2.80;;;;;;;;;;5008784;28;20555;-71
2022/12/30 02:10:12;;;;;;;29.02;3.35;;;;;;;;;;5006156;28;20050;-71
2022/12/30 02:12:39;;;;;;;27.67;2.70;;;;;;;;;;5027244;28;20071;-71
2022/12/30 02:15:07;;;;;;;27.52;3.33;;;;;;;;;;5028965;28;20056;-71
2022/12/30 02:17:40;;;;;;;24.23;3.22;;;;;;;;;;5009502;28;20064;-71
2022/12/30 02:20:24;;;;;;;25.42;3.00;;;;;;;;;;5025178;28;20667;-71
2022/12/30 02:23:03;;;;;;;23.20;1.92;;;;;;;;;;5028326;28;20053;-71
2022/12/30 02:25:45;;;;;;;27.33;3.10;;;;;;;;;;5008310;28;20555;-70
2022/12/30 02:28:27;;;;;;;29.27;2.75;;;;;;;;;;5019456;28;20041;-71
2022/12/30 02:31:09;;;;;;;20.95;2.95;;;;;;;;;;4956623;28;20061;-71
2022/12/30 02:33:41;;;;;;;33.38;3.72;;;;;;;;;;5024246;28;20128;-70
2022/12/30 02:36:10;;;;;;;27.33;2.90;;;;;;;;;;5023855;28;20244;-71
2022/12/30 02:38:40;;;;;;;26.67;2.42;;;;;;;;;;4995232;28;20057;-70
2022/12/30 02:46:58;;;;;;;30.55;3.50;;;;;;;;;;5024095;28;20511;-71
2022/12/30 02:49:27;;;;;;;21.40;3.13;;;;;;;;;;5018833;28;20060;-71
2022/12/30 02:54:40;;;;;;;32.83;3.88;;;;;;;;;;5009784;28;20063;-71
2022/12/30 02:57:22;;;;;;;28.33;3.10;;;;;;;;;;5027757;28;20041;-71
2022/12/30 03:05:33;;;;;;;26.52;3.35;;;;;;;;;;5024418;28;20088;-71
2022/12/30 03:08:04;;;;;;;26.35;3.15;;;;;;;;;;5008054;28;20493;-72
2022/12/30 03:13:23;;;;;;;24.63;3.47;;;;;;;;;;5026503;28;20081;-71
2022/12/30 03:15:53;;;;;;;34.95;3.28;;;;;;;;;;5009071;28;20064;-71
2022/12/30 03:18:22;;;;;;;26.98;2.75;;;;;;;;;;5025199;28;20053;-71
2022/12/30 03:20:52;;;;;;;33.85;3.17;;;;;;;;;;5025282;28;20049;-71
2022/12/30 03:28:52;;;;;;;26.67;3.67;;;;;;;;;;5017135;28;20162;-70
2022/12/30 03:31:20;;;;;;;28.05;3.30;;;;;;;;;;5006419;28;20053;-71
2022/12/30 03:33:47;;;;;;;24.50;3.72;;;;;;;;;;5003354;28;20059;-71
2022/12/30 03:36:18;;;;;;;33.65;4.03;;;;;;;;;;5026265;28;20517;-71
2022/12/30 03:38:49;;;;;;;31.58;3.63;;;;;;;;;;5027636;28;20049;-71
2022/12/30 03:41:17;;;;;;;38.50;3.90;;;;;;;;;;5028017;28;20045;-71
2022/12/30 03:43:44;;;;;;;25.13;3.03;;;;;;;;;;5007257;28;20053;-71
2022/12/30 03:46:12;;;;;;;29.42;3.47;;;;;;;;;;5007338;28;20053;-71
2022/12/30 03:48:40;;;;;;;27.42;3.40;;;;;;;;;;5023985;28;20054;-70
2022/12/30 03:51:07;;;;;;;28.40;3.25;;;;;;;;;;4998643;28;20641;-71
2022/12/30 03:53:36;;;;;;;37.90;4.47;;;;;;;;;;5010518;28;20060;-71
2022/12/30 03:56:03;;;;;;;43.05;4.95;;;;;;;;;;5026246;28;20480;-71
2022/12/30 03:58:30;;;;;;;33.95;4.22;;;;;;;;;;5008289;28;20053;-71
2022/12/30 04:00:57;;;;;;;35.63;4.82;;;;;;;;;;4997057;28;20547;-71
2022/12/30 04:03:24;;;;;;;30.23;3.88;;;;;;;;;;5002489;28;20058;-72
2022/12/30 04:05:54;;;;;;;38.03;3.40;;;;;;;;;;5021763;28;20468;-71
2022/12/30 04:08:21;;;;;;;32.53;3.65;;;;;;;;;;5023044;28;20045;-71
2022/12/30 04:10:50;;;;;;;33.65;4.80;;;;;;;;;;5024473;28;20057;-71
2022/12/30 04:13:17;;;;;;;40.08;4.10;;;;;;;;;;5024859;28;20053;-71
2022/12/30 04:15:48;;;;;;;46.17;5.43;;;;;;;;;;4998434;28;20684;-71
2022/12/30 04:18:15;;;;;;;42.33;4.82;;;;;;;;;;5003029;28;20046;-71
2022/12/30 04:20:43;;;;;;;38.05;3.50;;;;;;;;;;5024040;28;20050;-71
2022/12/30 04:23:10;;;;;;;37.83;4.35;;;;;;;;;;5022188;28;20059;-71
2022/12/30 04:25:37;;;;;;;39.05;4.22;;;;;;;;;;5023979;28;20708;-71
2022/12/30 04:28:06;;;;;;;35.45;4.30;;;;;;;;;;5022673;28;20164;-71
2022/12/30 04:30:34;;;;;;;32.63;4.30;;;;;;;;;;5021724;28;20061;-70
2022/12/30 04:33:01;;;;;;;34.50;5.47;;;;;;;;;;5021338;28;20170;-71
2022/12/30 04:35:28;;;;;;;32.70;4.18;;;;;;;;;;4997908;28;20050;-71
2022/12/30 04:37:56;;;;;;;32.30;5.25;;;;;;;;;;5001169;28;20064;-71
2022/12/30 04:40:23;;;;;;;31.75;4.25;;;;;;;;;;5007078;28;20404;-71
2022/12/30 04:42:50;;;;;;;27.60;4.63;;;;;;;;;;4999272;28;20065;-71
2022/12/30 04:45:19;;;;;;;33.38;4.78;;;;;;;;;;4999945;28;20056;-71
2022/12/30 04:47:46;;;;;;;31.00;4.85;;;;;;;;;;4999207;28;20057;-72
2022/12/30 04:50:13;;;;;;;31.92;5.45;;;;;;;;;;5004780;28;20053;-71
2022/12/30 04:52:40;;;;;;;27.52;4.72;;;;;;;;;;5019562;28;20049;-71
2022/12/30 04:55:08;;;;;;;34.40;5.15;;;;;;;;;;5008630;28;20496;-71
2022/12/30 04:57:35;;;;;;;27.42;5.47;;;;;;;;;;5006065;28;20393;-70
2022/12/30 05:00:03;;;;;;;20.58;5.32;;;;;;;;;;5024751;28;20044;-71
2022/12/30 05:02:31;;;;;;;24.45;5.03;;;;;;;;;;5005573;28;20054;-71
2022/12/30 05:04:59;;;;;;;28.42;6.38;;;;;;;;;;5009936;28;20075;-71
2022/12/30 05:07:26;;;;;;;25.45;5.78;;;;;;;;;;5024660;28;20068;-71
2022/12/30 05:09:53;;;;;;;28.10;5.93;;;;;;;;;;5026952;28;20049;-71
2022/12/30 05:12:21;;;;;;;35.25;7.28;;;;;;;;;;5003784;28;20057;-71
2022/12/30 05:14:48;;;;;;;27.67;6.82;;;;;;;;;;5002843;28;20076;-71
2022/12/30 05:17:15;;;;;;;24.23;7.00;;;;;;;;;;5006000;28;20133;-71
2022/12/30 05:19:44;;;;;;;29.80;7.32;;;;;;;;;;5024689;28;20145;-72
2022/12/30 05:22:11;;;;;;;32.42;10.25;;;;;;;;;;5023242;28;20558;-71
2022/12/30 05:27:23;;;;;;;33.97;9.65;;;;;;;;;;5022753;28;20178;-71
2022/12/30 05:29:50;;;;;;;32.42;9.55;;;;;;;;;;5023534;28;20057;-71
2022/12/30 05:32:18;;;;;;;35.88;9.20;;;;;;;;;;5025400;28;20051;-71
2022/12/30 05:34:46;;;;;;;38.58;9.75;;;;;;;;;;5019811;28;20049;-71
2022/12/30 05:37:14;;;;;;;35.00;9.68;;;;;;;;;;5044242;28;20049;-71
2022/12/30 05:39:41;;;;;;;31.35;9.63;;;;;;;;;;5023286;28;20554;-71
2022/12/30 05:42:08;;;;;;;34.60;7.55;;;;;;;;;;5026081;28;20392;-71
2022/12/30 05:44:35;;;;;;;28.63;6.80;;;;;;;;;;5021892;28;20064;-71
2022/12/30 05:47:02;;;;;;;26.92;6.55;;;;;;;;;;5025057;28;20049;-71
2022/12/30 05:49:30;;;;;;;35.92;7.38;;;;;;;;;;5006992;28;20056;-71
2022/12/30 05:51:58;;;;;;;33.80;6.60;;;;;;;;;;5025731;28;20051;-71
2022/12/30 05:54:26;;;;;;;34.72;7.65;;;;;;;;;;5023732;28;20060;-71
2022/12/30 05:56:53;;;;;;;35.20;7.15;;;;;;;;;;5026273;28;20057;-71
2022/12/30 05:59:20;;;;;;;26.70;7.78;;;;;;;;;;5024206;28;20045;-71
2022/12/30 06:01:47;;;;;;;35.45;9.55;;;;;;;;;;5024357;28;20052;-71
2022/12/30 06:04:15;;;;;;;30.75;8.50;;;;;;;;;;5024140;28;20051;-71
2022/12/30 06:06:42;;;;;;;33.83;8.57;;;;;;;;;;5006274;28;20079;-71
2022/12/30 06:09:10;;;;;;;21.67;8.05;;;;;;;;;;5003001;28;20068;-71
2022/12/30 06:11:38;;;;;;;30.08;8.80;;;;;;;;;;5022519;28;20053;-72
2022/12/30 06:14:05;;;;;;;24.65;8.52;;;;;;;;;;5004289;28;20053;-71
2022/12/30 06:16:32;;;;;;;23.52;6.65;;;;;;;;;;5023980;28;20049;-71
2022/12/30 06:18:59;;;;;;;22.67;6.35;;;;;;;;;;5026687;28;20053;-72
2022/12/30 06:21:27;;;;;;;23.20;5.70;;;;;;;;;;5006281;28;20057;-71
2022/12/30 06:23:54;;;;;;;26.27;4.70;;;;;;;;;;5021180;28;20049;-71
2022/12/30 06:26:22;;;;;;;21.23;4.55;;;;;;;;;;5024053;28;20539;-71
2022/12/30 06:28:50;;;;;;;27.45;4.68;;;;;;;;;;5023507;28;20416;-71
2022/12/30 06:31:17;;;;;;;17.65;3.33;;;;;;;;;;5005870;28;20057;-71
2022/12/30 06:33:44;;;;;;;24.77;3.55;;;;;;;;;;5023912;28;20060;-71
2022/12/30 06:36:12;;;;;;;16.05;3.70;;;;;;;;;;5026980;28;20056;-71
2022/12/30 06:38:39;;;;;;;26.63;4.22;;;;;;;;;;5023929;28;20049;-71
2022/12/30 06:41:06;;;;;;;20.10;3.13;;;;;;;;;;5021923;28;20049;-71
2022/12/30 06:43:35;;;;;;;18.88;3.38;;;;;;;;;;5005426;28;20488;-71
2022/12/30 06:46:02;;;;;;;18.50;3.58;;;;;;;;;;5019493;28;20440;-71
2022/12/30 06:48:30;;;;;;;24.35;3.20;;;;;;;;;;5007954;28;20057;-71
2022/12/30 06:51:00;;;;;;;20.33;3.60;;;;;;;;;;5004540;28;20054;-71
2022/12/30 06:53:27;;;;;;;15.32;3.08;;;;;;;;;;5006987;28;20057;-71
2022/12/30 06:55:55;;;;;;;22.90;3.42;;;;;;;;;;5000495;28;20575;-71
2022/12/30 06:58:22;;;;;;;23.60;4.60;;;;;;;;;;5023672;28;20057;-72
2022/12/30 07:00:50;;;;;;;18.77;3.72;;;;;;;;;;5024193;28;20053;-71
2022/12/30 07:03:18;;;;;;;17.33;3.80;;;;;;;;;;5008307;28;20055;-72
2022/12/30 07:05:45;;;;;;;18.33;3.20;;;;;;;;;;5021510;28;20060;-72
2022/12/30 07:08:12;;;;;;;16.92;3.58;;;;;;;;;;5023053;28;20056;-72
2022/12/30 07:10:40;;;;;;;21.58;3.58;;;;;;;;;;5017689;28;20057;-72
2022/12/30 07:13:07;;;;;;;15.95;3.58;;;;;;;;;;5024924;28;20200;-72
2022/12/30 07:15:34;;;;;;;21.95;4.03;;;;;;;;;;5024125;28;20052;-71
2022/12/30 07:18:03;;;;;;;24.38;4.57;;;;;;;;;;5022322;28;20102;-72
2022/12/30 07:20:30;;;;;;;24.10;4.32;;;;;;;;;;5021636;28;20050;-71
2022/12/30 07:22:57;;;;;;;17.85;4.07;;;;;;;;;;5021252;28;20503;-72
2022/12/30 07:25:24;;;;;;;18.23;3.65;;;;;;;;;;5003305;28;20057;-71
2022/12/30 07:27:57;;;;;;;19.73;3.78;;;;;;;;;;5008421;28;20064;-72
2022/12/30 07:30:24;;;;;;;16.98;3.65;;;;;;;;;;5011847;28;20169;-72
2022/12/30 07:32:51;;;;;;;24.63;4.70;;;;;;;;;;5024987;28;20419;-72
2022/12/30 07:35:20;;;;;;;22.70;4.47;;;;;;;;;;5002484;28;20064;-72
2022/12/30 07:37:47;;;;;;;15.70;3.63;;;;;;;;;;5002267;28;20060;-71
2022/12/30 07:40:15;;;;;;;19.73;3.95;;;;;;;;;;5025020;28;20060;-71
2022/12/30 07:42:42;;;;;;;24.52;4.32;;;;;;;;;;5007873;28;20176;-72
2022/12/30 07:45:09;;;;;;;21.27;4.18;;;;;;;;;;5011151;28;20042;-72
2022/12/30 07:47:37;;;;;;;20.10;3.58;;;;;;;;;;4998053;28;20081;-72
2022/12/30 07:50:05;;;;;;;22.17;3.45;;;;;;;;;;5004134;28;20053;-72
2022/12/30 07:52:34;;;;;;;29.83;3.95;;;;;;;;;;4997440;28;20049;-71
2022/12/30 07:55:01;;;;;;;19.98;3.50;;;;;;;;;;5023701;28;20688;-72
2022/12/30 07:57:28;;;;;;;19.20;3.33;;;;;;;;;;4999742;28;20050;-72
2022/12/30 07:59:56;;;;;;;19.50;3.33;;;;;;;;;;5006408;28;20421;-71
2022/12/30 08:02:23;;;;;;;21.70;3.22;;;;;;;;;;4999774;28;20053;-71
2022/12/30 08:04:51;;;;;;;22.98;3.63;;;;;;;;;;5015958;28;21639;-72
2022/12/30 08:07:18;;;;;;;19.98;2.83;;;;;;;;;;5001232;28;20626;-72
2022/12/30 08:09:47;;;;;;;21.00;3.67;;;;;;;;;;5009703;28;20658;-72
2022/12/30 08:12:14;;;;;;;20.90;3.13;;;;;;;;;;5005342;28;20823;-71
2022/12/30 08:14:41;;;;;;;16.60;3.53;;;;;;;;;;5014348;28;20056;-71
2022/12/30 08:17:09;;;;;;;18.25;2.78;;;;;;;;;;4996929;28;20052;-72
2022/12/30 08:19:36;;;;;;;21.02;3.88;;;;;;;;;;5001930;28;20157;-70
2022/12/30 08:22:03;;;;;;;17.55;3.30;;;;;;;;;;5006775;28;20067;-72
2022/12/30 08:24:30;;;;;;;19.15;3.35;;;;;;;;;;5001029;28;20051;-72
2022/12/30 08:26:59;;;;;;;20.42;2.83;;;;;;;;;;5004650;28;20399;-72
2022/12/30 08:29:26;;;;;;;26.38;3.10;;;;;;;;;;5022281;28;20362;-72
2022/12/30 08:31:54;;;;;;;23.70;2.78;;;;;;;;;;5019594;28;20053;-71
2022/12/30 08:34:21;;;;;;;19.13;3.53;;;;;;;;;;5017225;28;20050;-72
2022/12/30 08:36:48;;;;;;;16.08;2.63;;;;;;;;;;5026503;28;20049;-72
2022/12/30 08:39:16;;;;;;;21.40;2.97;;;;;;;;;;5000907;28;20416;-72
2022/12/30 08:41:44;;;;;;;17.23;3.88;;;;;;;;;;5000844;28;20076;-72
2022/12/30 08:44:13;;;;;;;19.77;3.35;;;;;;;;;;5016129;28;20056;-73
2022/12/30 08:46:40;;;;;;;20.15;3.45;;;;;;;;;;5024270;28;20046;-72
2022/12/30 08:49:08;;;;;;;22.25;3.33;;;;;;;;;;5023616;28;20053;-73
2022/12/30 08:51:36;;;;;;;19.50;3.33;;;;;;;;;;5019764;28;20045;-72
2022/12/30 08:54:04;;;;;;;15.88;2.72;;;;;;;;;;4998972;28;20049;-72
2022/12/30 08:56:32;;;;;;;22.73;3.45;;;;;;;;;;5000460;28;20049;-71
2022/12/30 08:59:00;;;;;;;19.25;2.67;;;;;;;;;;4994533;28;20448;-71
2022/12/30 09:01:30;;;;;;;16.80;2.67;;;;;;;;;;5013311;28;20075;-72
2022/12/30 09:03:57;;;;;;;22.45;3.58;;;;;;;;;;4994787;28;20052;-71
2022/12/30 09:06:25;;;;;;;25.17;2.90;;;;;;;;;;5016772;28;20053;-72
2022/12/30 09:08:53;;;;;;;23.30;2.95;;;;;;;;;;4996609;28;20057;-72
2022/12/30 09:11:21;;;;;;;17.25;2.65;;;;;;;;;;5012398;28;20424;-72
2022/12/30 09:13:49;;;;;;;21.35;2.95;;;;;;;;;;4998962;28;20037;-72
2022/12/30 09:16:17;;;;;;;17.33;2.85;;;;;;;;;;4997012;28;20458;-72
2022/12/30 09:18:46;;;;;;;22.70;2.92;;;;;;;;;;5005199;28;20703;-72
2022/12/30 09:21:13;;;;;;;23.98;3.50;;;;;;;;;;4999462;28;20045;-67
2022/12/30 09:23:40;;;;;;;21.90;2.90;;;;;;;;;;5001076;28;20053;-68
2022/12/30 09:26:08;;;;;;;25.60;3.85;;;;;;;;;;4992483;28;20057;-70
2022/12/30 09:28:36;;;;;;;23.73;3.58;;;;;;;;;;5010053;28;20056;-70
2022/12/30 09:31:05;;;;;;;12.57;2.63;;;;;;;;;;4998208;28;20065;-68
2022/12/30 09:33:32;;;;;;;16.63;2.95;;;;;;;;;;4993634;28;20045;-68
2022/12/30 09:36:01;;;;;;;16.60;2.97;;;;;;;;;;5000524;28;20496;-68
2022/12/30 09:38:28;;;;;;;19.85;3.20;;;;;;;;;;5002705;28;20713;-68
2022/12/30 09:40:57;;;;;;;19.30;2.83;;;;;;;;;;5009650;28;20129;-68
2022/12/30 09:43:28;;;;;;;21.67;2.80;;;;;;;;;;4997168;28;20056;-67
2022/12/30 09:46:10;;;;;;;17.95;3.50;;;;;;;;;;5002316;28;20554;-68
2022/12/30 09:48:40;;;;;;;20.58;2.85;;;;;;;;;;4996261;28;20061;-69
2022/12/30 09:51:12;;;;;;;20.17;2.88;;;;;;;;;;5015593;28;20061;-69
2022/12/30 09:53:42;;;;;;;14.07;2.90;;;;;;;;;;5016498;28;20060;-68
2022/12/30 09:56:15;;;;;;;15.40;2.60;;;;;;;;;;4995262;28;20049;-68
2022/12/30 09:58:44;;;;;;;17.10;2.50;;;;;;;;;;4992607;28;20160;-68
2022/12/30 10:01:18;;;;;;;16.55;2.58;;;;;;;;;;4993723;28;20103;-67
2022/12/30 10:03:45;;;;;;;;;;;;;;;;;;4996229;28;20057;-68
2022/12/30 10:06:18;;;;;;;15.77;2.80;;;;;;;;;;4987595;28;19955;-68
2022/12/30 10:08:58;;;;;;;16.45;2.38;;;;;;;;;;4998158;28;20208;-70
2022/12/30 10:11:29;;;;;;;17.00;2.95;;;;;;;;;;5001648;28;20078;-68
2022/12/30 10:14:02;;;;;;;19.33;2.78;;;;;;;;;;4999324;28;20500;-70
2022/12/30 10:16:37;;;;;;;14.32;2.55;;;;;;;;;;4999105;28;20069;-71
2022/12/30 10:19:10;;;;;;;11.40;2.20;;;;;;;;;;4998867;28;20046;-71
2022/12/30 10:21:42;;;;;;;13.20;2.55;;;;;;;;;;5000197;28;20046;-68
2022/12/30 10:24:15;;;;;;;11.30;2.38;;;;;;;;;;5014469;28;20045;-69
2022/12/30 10:26:44;;;;;;;10.65;2.42;;;;;;;;;;5031655;28;20079;-69
2022/12/30 10:29:15;;;;;;;12.93;2.40;;;;;;;;;;4997959;28;20155;-70
2022/12/30 10:31:42;;;;;;;13.18;2.65;;;;;;;;;;4996144;28;20057;-71
2022/12/30 10:34:12;;;;;;;18.35;3.08;;;;;;;;;;5001686;28;20057;-70
2022/12/30 10:36:43;;;;;;;14.73;2.35;;;;;;;;;;4999434;28;20508;-68
2022/12/30 10:39:16;;;;;;;12.75;2.22;;;;;;;;;;5000094;28;20057;-70
2022/12/30 10:41:47;;;;;;;15.77;2.95;;;;;;;;;;5000599;28;20063;-69
2022/12/30 10:44:20;;;;;;;14.52;3.05;;;;;;;;;;5001447;28;20053;-69
2022/12/30 10:47:05;;;;;;;19.02;2.70;;;;;;;;;;5000372;28;20396;-69
2022/12/30 10:49:53;;;;;;;17.58;2.58;;;;;;;;;;5032868;28;20598;-72
2022/12/30 10:52:22;;;;;;;12.30;2.60;;;;;;;;;;4993809;28;20508;-70
2022/12/30 10:54:49;;;;;;;13.07;2.10;;;;;;;;;;5001416;28;20050;-71
2022/12/30 10:57:18;;;;;;;13.20;2.55;;;;;;;;;;4999635;28;20053;-70
2022/12/30 10:59:46;;;;;;;10.75;3.22;;;;;;;;;;5030698;28;20076;-71
2022/12/30 11:02:16;;;;;;;12.77;3.55;;;;;;;;;;4999639;28;20045;-71
2022/12/30 11:04:43;;;;;;;9.77;1.88;;;;;;;;;;5004133;28;20096;-70
2022/12/30 11:07:12;;;;;;;13.15;2.05;;;;;;;;;;5004351;28;20053;-71
2022/12/30 11:09:41;;;;;;;8.98;1.95;;;;;;;;;;5006005;28;20053;-71
2022/12/30 11:15:07;;;;;;;14.90;2.72;;;;;;;;;;5008468;28;20444;-71
2022/12/30 11:17:38;;;;;;;15.77;3.10;;;;;;;;;;5008413;28;20068;-70
2022/12/30 11:20:06;;;;;;;12.13;2.80;;;;;;;;;;5003863;28;20050;-69
2022/12/30 11:22:34;;;;;;;8.63;1.65;;;;;;;;;;5007919;28;20049;-69
2022/12/30 11:25:04;;;;;;;12.38;1.92;;;;;;;;;;5003732;28;20045;-69
2022/12/30 11:27:37;;;;;;;11.52;2.17;;;;;;;;;;5005999;28;20068;-69
2022/12/30 11:30:04;;;;;;;17.77;2.80;;;;;;;;;;5025452;28;21448;-69
2022/12/30 11:32:32;;;;;;;8.68;2.08;;;;;;;;;;5005294;28;20049;-67
2022/12/30 11:34:59;;;;;;;9.63;1.75;;;;;;;;;;5008697;28;20045;-69
2022/12/30 11:37:33;;;;;;;11.00;1.80;;;;;;;;;;5009675;28;20049;-69
2022/12/30 11:40:19;;;;;;;11.90;2.15;;;;;;;;;;5002968;28;20396;-69
2022/12/30 11:42:47;;;;;;;10.05;1.98;;;;;;;;;;5008471;28;20045;-70
2022/12/30 11:45:18;;;;;;;10.38;2.40;;;;;;;;;;5007013;28;20797;-68
2022/12/30 11:47:46;;;;;;;7.30;1.77;;;;;;;;;;5008382;28;20500;-69
2022/12/30 11:50:17;;;;;;;13.52;3.03;;;;;;;;;;5006755;28;20065;-68
2022/12/30 11:52:49;;;;;;;11.23;2.38;;;;;;;;;;5006178;28;20136;-67
2022/12/30 11:55:20;;;;;;;11.02;1.80;;;;;;;;;;5007619;28;20084;-69
2022/12/30 11:57:49;;;;;;;10.48;2.40;;;;;;;;;;5007579;28;20076;-68
2022/12/30 12:00:29;;;;;;;10.00;2.38;;;;;;;;;;5009053;28;20046;-68
2022/12/30 12:02:59;;;;;;;12.27;2.67;;;;;;;;;;5006887;28;20053;-69
2022/12/30 12:05:28;;;;;;;12.43;2.22;;;;;;;;;;5007090;28;20096;-69
2022/12/30 12:07:57;;;;;;;12.63;2.20;;;;;;;;;;5005131;28;20558;-69
2022/12/30 12:10:26;;;;;;;8.15;2.22;;;;;;;;;;4997315;28;20113;-71
2022/12/30 12:12:56;;;;;;;9.90;2.10;;;;;;;;;;4996045;28;20053;-71
2022/12/30 12:15:28;;;;;;;13.00;2.03;;;;;;;;;;4999197;28;20733;-72
2022/12/30 12:17:58;;;;;;;12.23;2.20;;;;;;;;;;5019162;28;20052;-69
2022/12/30 12:20:29;;;;;;;7.95;1.80;;;;;;;;;;5000729;28;20057;-71
2022/12/30 12:23:02;;;;;;;10.18;1.50;;;;;;;;;;4990620;28;20258;-69
2022/12/30 12:25:33;;;;;;;5.40;1.30;;;;;;;;;;5000952;28;20048;-68
2022/12/30 12:28:01;;;;;;;9.07;1.65;;;;;;;;;;4996695;28;20060;-69
2022/12/30 12:30:36;;;;;;;8.02;1.38;;;;;;;;;;4996925;28;20063;-69
2022/12/30 12:33:09;;;;;;;7.00;1.48;;;;;;;;;;4999234;28;20045;-71
2022/12/30 12:35:43;;;;;;;5.30;0.85;;;;;;;;;;5000790;28;20496;-69
2022/12/30 12:38:20;;;;;;;10.10;1.20;;;;;;;;;;5001866;28;20064;-68
2022/12/30 12:40:54;;;;;;;6.20;1.05;;;;;;;;;;4999859;28;20049;-69
2022/12/30 12:43:34;;;;;;;5.93;0.98;;;;;;;;;;5004933;28;20056;-71
2022/12/30 12:46:12;;;;;;;10.20;1.27;;;;;;;;;;5002239;28;20512;-70
2022/12/30 12:48:46;;;;;;;10.95;1.92;;;;;;;;;;5000201;28;20053;-68
2022/12/30 12:51:27;;;;;;;8.40;1.27;;;;;;;;;;5035251;28;20049;-70
2022/12/30 12:54:03;;;;;;;14.20;2.97;;;;;;;;;;5017523;28;20049;-69
2022/12/30 12:56:48;;;;;;;9.55;1.70;;;;;;;;;;5001089;28;20061;-71
2022/12/30 12:59:27;;;;;;;6.13;1.42;;;;;;;;;;5001418;28;20055;-69
2022/12/30 13:01:59;;;;;;;9.32;1.20;;;;;;;;;;5015558;28;20053;-71
2022/12/30 13:04:28;;;;;;;7.35;1.40;;;;;;;;;;5000515;28;20420;-68
2022/12/30 13:07:03;;;;;;;10.32;1.80;;;;;;;;;;5001368;28;20060;-69
2022/12/30 13:09:47;;;;;;;11.48;1.70;;;;;;;;;;5000569;28;20412;-70
2022/12/30 13:12:17;;;;;;;9.68;1.80;;;;;;;;;;5004305;28;20772;-70
2022/12/30 13:14:48;;;;;;;10.15;1.60;;;;;;;;;;5004003;28;20045;-69
2022/12/30 13:17:18;;;;;;;12.30;1.88;;;;;;;;;;5005108;28;20061;-70
2022/12/30 13:19:48;;;;;;;7.63;1.65;;;;;;;;;;5002902;28;20681;-70
2022/12/30 13:22:16;;;;;;;13.98;1.88;;;;;;;;;;5005127;28;20056;-69
2022/12/30 13:24:46;;;;;;;6.03;1.40;;;;;;;;;;5000913;28;20049;-70
2022/12/30 13:27:18;;;;;;;9.85;1.70;;;;;;;;;;5002798;28;20479;-69
2022/12/30 13:29:47;;;;;;;5.00;1.30;;;;;;;;;;5004953;28;20049;-70
2022/12/30 13:32:17;;;;;;;10.55;2.40;;;;;;;;;;5018995;28;20752;-71
2022/12/30 13:34:50;;;;;;;9.85;2.30;;;;;;;;;;5035193;28;20060;-70
2022/12/30 13:37:20;;;;;;;8.93;1.60;;;;;;;;;;5004212;28;20064;-69
2022/12/30 13:39:52;;;;;;;10.32;1.60;;;;;;;;;;5003077;28;20054;-69
2022/12/30 13:42:37;;;;;;;6.55;1.23;;;;;;;;;;5004523;28;20057;-70
2022/12/30 13:45:11;;;;;;;12.90;1.73;;;;;;;;;;5004026;28;20052;-69
2022/12/30 13:47:40;;;;;;;5.90;1.35;;;;;;;;;;5003813;28;20053;-69
2022/12/30 13:50:14;;;;;;;6.75;1.63;;;;;;;;;;5005065;28;20518;-69
2022/12/30 13:52:45;;;;;;;8.60;1.73;;;;;;;;;;5007092;28;20769;-71
2022/12/30 13:55:17;;;;;;;8.43;2.05;;;;;;;;;;5004618;28;20080;-68
2022/12/30 13:57:46;;;;;;;8.02;1.67;;;;;;;;;;5001996;28;20063;-69
2022/12/30 14:00:25;;;;;;;8.68;1.60;;;;;;;;;;5004975;28;20140;-70
2022/12/30 14:02:58;;;;;;;6.35;1.20;;;;;;;;;;5005242;28;20229;-70
2022/12/30 14:05:59;;;;;;;8.90;1.67;;;;;;;;;;5002464;28;20571;-71
2022/12/30 14:08:45;;;;;;;10.40;1.80;;;;;;;;;;5003361;28;20052;-69
2022/12/30 14:11:14;;;;;;;9.15;2.10;;;;;;;;;;5019446;28;20128;-69
2022/12/30 14:13:43;;;;;;;6.55;1.42;;;;;;;;;;4999699;28;20053;-68
2022/12/30 14:16:37;;;;;;;8.98;2.25;;;;;;;;;;5011028;28;20491;-68
2022/12/30 14:19:04;;;;;;;;;;;;;;;;;;5003530;28;20085;-70
2022/12/30 14:21:50;;;;;;;7.85;1.23;;;;;;;;;;5037109;28;19932;-71
2022/12/30 14:24:36;;;;;;;10.40;1.58;;;;;;;;;;4999636;28;20736;-71
2022/12/30 14:27:03;;;;;;;12.40;1.38;;;;;;;;;;5018013;28;20077;-72
2022/12/30 14:29:31;;;;;;;7.05;1.27;;;;;;;;;;5004160;28;20127;-72
2022/12/30 14:32:04;;;;;;;6.40;1.42;;;;;;;;;;5003206;28;20045;-72
2022/12/30 14:34:33;;;;;;;5.65;1.20;;;;;;;;;;5006498;28;20060;-71
2022/12/30 14:37:01;;;;;;;9.25;1.30;;;;;;;;;;5005963;28;20076;-72
2022/12/30 14:39:29;;;;;;;6.93;1.20;;;;;;;;;;5005079;28;20156;-72
2022/12/30 14:41:57;;;;;;;12.10;1.60;;;;;;;;;;5009545;28;20060;-73
2022/12/30 14:44:27;;;;;;;11.25;2.35;;;;;;;;;;5007147;28;20136;-72
2022/12/30 14:46:56;;;;;;;8.90;1.13;;;;;;;;;;5007608;28;20107;-71
2022/12/30 14:49:31;;;;;;;7.70;1.55;;;;;;;;;;5001895;28;20111;-71
2022/12/30 14:52:00;;;;;;;8.93;1.08;;;;;;;;;;5004082;28;20504;-71
2022/12/30 14:54:30;;;;;;;4.82;1.13;;;;;;;;;;5001427;28;20050;-72
2022/12/30 14:57:00;;;;;;;8.60;1.58;;;;;;;;;;4996366;28;20077;-71
2022/12/30 14:59:29;;;;;;;6.50;1.05;;;;;;;;;;4998292;28;20069;-71
2022/12/30 15:02:12;;;;;;;6.20;1.25;;;;;;;;;;5000278;28;20056;-72
2022/12/30 15:04:41;;;;;;;10.05;1.48;;;;;;;;;;5002528;28;20041;-71
2022/12/30 15:07:08;;;;;;;7.88;1.70;;;;;;;;;;5009012;28;20056;-71
2022/12/30 15:09:36;;;;;;;9.27;1.55;;;;;;;;;;5003640;28;20062;-73
2022/12/30 15:12:05;;;;;;;10.18;1.75;;;;;;;;;;5009809;28;20539;-70
2022/12/30 15:14:32;;;;;;;6.97;1.92;;;;;;;;;;5022090;28;20489;-71
2022/12/30 15:17:07;;;;;;;9.65;1.60;;;;;;;;;;5007261;28;20069;-73
2022/12/30 15:19:36;;;;;;;15.18;1.77;;;;;;;;;;5003628;28;20081;-71
2022/12/30 15:22:04;;;;;;;11.40;1.98;;;;;;;;;;5007346;28;20049;-71
2022/12/30 15:24:31;;;;;;;6.32;1.50;;;;;;;;;;5007295;28;20050;-73
2022/12/30 15:26:59;;;;;;;7.55;1.83;;;;;;;;;;5010602;28;20057;-71
2022/12/30 15:29:27;;;;;;;12.88;1.65;;;;;;;;;;5007174;28;20053;-74
2022/12/30 15:31:55;;;;;;;11.18;2.00;;;;;;;;;;5002157;28;20053;-72
2022/12/30 15:34:31;;;;;;;7.80;1.23;;;;;;;;;;5008053;28;20057;-73
2022/12/30 15:36:59;;;;;;;10.40;1.50;;;;;;;;;;5004042;28;20508;-72
2022/12/30 15:39:29;;;;;;;8.57;1.90;;;;;;;;;;5010170;28;20049;-73
2022/12/30 15:41:57;;;;;;;5.10;1.65;;;;;;;;;;5004972;28;20061;-74
2022/12/30 15:44:24;;;;;;;9.23;2.42;;;;;;;;;;4999381;28;20060;-74
2022/12/30 15:46:54;;;;;;;10.25;2.33;;;;;;;;;;5010677;28;20056;-73
2022/12/30 15:49:23;;;;;;;6.30;1.60;;;;;;;;;;5003476;28;20462;-73